Asten, Netherlands
Current Conditions -  °F | °C
As of 2:08 AM on Monday 24 Nov 2014 (Local Time) from EHEH Reporting Station
Light Rain Light Rain  
Wind Chill: 50°   Ceiling: 1000
Heat Index: 50°   Visibility: 6mi
Dew Point: 48°   Wind: 6mph
Humidity: 94%   Direction: 310°NW
Pressure: 30.06"   Gusts: NA
Location:  51.4°N, 5.75°E
Report Text: EHEH 240108Z AUTO 31005KT 9999 -RA FEW006 SCT007 BKN010 10/09 Q1018 RERA REDZ GRN
Loading
Personal Weather Stations






























Interactive Weather Map New forecast layout! Learn more

10-Day Weather Forecast

Advertisements
Track Severe Weather on mobile